Wetterdaten: Woche 23.07.18 - 29.07.18 (KW30)
Datum Zeit Temperatur Luftfeuchte Luftdruck Niederschlag Windrichtung Sonnenschein Solar Wind
23.07.2018 00:00 15,7 C 99 % 1013,6 hPa 0,2 l/m N 0,00 h 0 W/m 0,0 km/h (0 Bft)
23.07.2018 01:00 15,4 C 99 % 1013,5 hPa 0,0 l/m N 0,00 h 0 W/m 0,0 km/h (0 Bft)
23.07.2018 02:00 15,2 C 100 % 1013,6 hPa 0,0 l/m N 0,00 h 0 W/m 0,0 km/h (0 Bft)
23.07.2018 03:00 15,2 C 100 % 1013,4 hPa 0,0 l/m N 0,00 h 0 W/m 0,0 km/h (0 Bft)
23.07.2018 04:00 15,3 C 100 % 1013,4 hPa 0,0 l/m N 0,00 h 0 W/m 0,0 km/h (0 Bft)
23.07.2018 05:00 15,2 C 100 % 1013,6 hPa 0,0 l/m N 0,00 h 0 W/m 0,0 km/h (0 Bft)
23.07.2018 06:00 15,3 C 100 % 1014,1 hPa 0,0 l/m N 0,00 h 19 W/m 0,0 km/h (0 Bft)
23.07.2018 07:00 15,7 C 100 % 1014,4 hPa 0,0 l/m N 0,00 h 68 W/m 0,5 km/h (0 Bft)
23.07.2018 08:00 16,5 C 100 % 1014,7 hPa 0,0 l/m O-NO 0,08 h 145 W/m 1,5 km/h (1 Bft)
23.07.2018 09:00 17,7 C 97 % 1015,1 hPa 0,0 l/m O-NO 0,08 h 248 W/m 6,4 km/h (2 Bft)
23.07.2018 10:00 19,6 C 89 % 1015,3 hPa 0,0 l/m O-NO 0,83 h 519 W/m 7,6 km/h (2 Bft)
23.07.2018 11:00 20,8 C 80 % 1015,4 hPa 0,0 l/m O 0,33 h 503 W/m 7,4 km/h (2 Bft)
23.07.2018 12:00 21,5 C 78 % 1015,3 hPa 0,0 l/m O 0,33 h 417 W/m 6,8 km/h (2 Bft)
23.07.2018 13:00 22,0 C 76 % 1015,2 hPa 0,0 l/m O 0,67 h 568 W/m 3,7 km/h (1 Bft)
23.07.2018 14:00 24,4 C 64 % 1015,0 hPa 0,0 l/m O 0,75 h 734 W/m 10,6 km/h (2 Bft)
23.07.2018 15:00 25,1 C 59 % 1014,8 hPa 0,0 l/m O 0,83 h 694 W/m 10,2 km/h (2 Bft)
23.07.2018 16:00 25,9 C 55 % 1014,5 hPa 0,0 l/m O 1,00 h 711 W/m 9,8 km/h (2 Bft)
23.07.2018 17:00 25,3 C 53 % 1014,1 hPa 0,0 l/m O 0,50 h 313 W/m 7,7 km/h (2 Bft)
23.07.2018 18:00 25,8 C 52 % 1014,0 hPa 0,0 l/m O-SO 1,00 h 345 W/m 6,2 km/h (2 Bft)
23.07.2018 19:00 24,8 C 55 % 1013,9 hPa 0,0 l/m O-SO 0,75 h 140 W/m 3,1 km/h (1 Bft)
23.07.2018 20:00 22,9 C 67 % 1014,1 hPa 0,0 l/m N 0,08 h 31 W/m 0,4 km/h (0 Bft)
23.07.2018 21:00 20,6 C 78 % 1014,6 hPa 0,0 l/m N 0,00 h 6 W/m 0,0 km/h (0 Bft)
23.07.2018 22:00 18,8 C 85 % 1014,7 hPa 0,0 l/m N 0,00 h 0 W/m 0,0 km/h (0 Bft)
23.07.2018 23:00 17,5 C 88 % 1014,5 hPa 0,0 l/m N 0,00 h 0 W/m 0,3 km/h (0 Bft)
24.07.2018 00:00 16,6 C 91 % 1014,6 hPa 0,0 l/m N 0,00 h 0 W/m 0,0 km/h (0 Bft)
24.07.2018 01:00 15,8 C 93 % 1014,2 hPa 0,0 l/m N 0,00 h 0 W/m 0,0 km/h (0 Bft)
24.07.2018 02:00 15,4 C 95 % 1013,9 hPa 0,0 l/m N 0,00 h 0 W/m 0,0 km/h (0 Bft)
24.07.2018 03:00 15,0 C 95 % 1013,4 hPa 0,0 l/m N 0,00 h 0 W/m 0,0 km/h (0 Bft)
24.07.2018 04:00 14,8 C 96 % 1013,1 hPa 0,0 l/m N 0,00 h 0 W/m 0,8 km/h (0 Bft)
24.07.2018 05:00 14,7 C 96 % 1012,8 hPa 0,0 l/m O-SO 0,00 h 7 W/m 0,5 km/h (0 Bft)
24.07.2018 06:00 14,8 C 97 % 1012,6 hPa 0,0 l/m N 0,08 h 37 W/m 0,1 km/h (0 Bft)
24.07.2018 07:00 16,2 C 94 % 1012,5 hPa 0,0 l/m N 0,83 h 168 W/m 0,1 km/h (0 Bft)
24.07.2018 08:00 19,0 C 86 % 1012,5 hPa 0,0 l/m O 1,00 h 345 W/m 4,6 km/h (1 Bft)
24.07.2018 09:00 21,7 C 75 % 1012,3 hPa 0,0 l/m O 0,83 h 402 W/m 11,0 km/h (2 Bft)
24.07.2018 10:00 24,0 C 65 % 1012,2 hPa 0,0 l/m O-NO 0,92 h 597 W/m 14,9 km/h (3 Bft)
24.07.2018 11:00 25,6 C 58 % 1012,0 hPa 0,0 l/m O-NO 1,00 h 763 W/m 17,8 km/h (3 Bft)
24.07.2018 12:00 26,9 C 52 % 1011,6 hPa 0,0 l/m O-NO 1,00 h 838 W/m 19,7 km/h (3 Bft)
24.07.2018 13:00 28,0 C 47 % 1011,1 hPa 0,0 l/m O 1,00 h 864 W/m 18,2 km/h (3 Bft)
24.07.2018 14:00 28,9 C 46 % 1010,9 hPa 0,0 l/m O-NO 1,00 h 840 W/m 15,8 km/h (3 Bft)
24.07.2018 15:00 29,2 C 44 % 1010,4 hPa 0,0 l/m O 1,00 h 765 W/m 18,0 km/h (3 Bft)
24.07.2018 16:00 29,5 C 43 % 1010,2 hPa 0,0 l/m O-NO 1,00 h 644 W/m 16,9 km/h (3 Bft)
24.07.2018 17:00 29,4 C 42 % 1009,9 hPa 0,0 l/m O-NO 1,00 h 506 W/m 15,0 km/h (3 Bft)
24.07.2018 18:00 29,1 C 41 % 1009,7 hPa 0,0 l/m O 1,00 h 340 W/m 12,9 km/h (3 Bft)
24.07.2018 19:00 27,8 C 45 % 1009,8 hPa 0,0 l/m O 0,83 h 156 W/m 12,4 km/h (3 Bft)
24.07.2018 20:00 26,0 C 51 % 1010,0 hPa 0,0 l/m O 0,08 h 32 W/m 5,5 km/h (1 Bft)
24.07.2018 21:00 22,3 C 67 % 1010,3 hPa 0,0 l/m N 0,00 h 6 W/m 0,0 km/h (0 Bft)
24.07.2018 22:00 20,0 C 74 % 1010,6 hPa 0,0 l/m N 0,00 h 0 W/m 0,0 km/h (0 Bft)
24.07.2018 23:00 19,0 C 77 % 1010,7 hPa 0,0 l/m N 0,00 h 0 W/m 0,1 km/h (0 Bft)
25.07.2018 00:00 18,4 C 79 % 1010,9 hPa 0,0 l/m N 0,00 h 0 W/m 0,0 km/h (0 Bft)
25.07.2018 01:00 17,6 C 83 % 1011,0 hPa 0,0 l/m N 0,00 h 0 W/m 0,0 km/h (0 Bft)
25.07.2018 02:00 17,1 C 84 % 1010,9 hPa 0,0 l/m N 0,00 h 0 W/m 0,5 km/h (0 Bft)
25.07.2018 03:00 16,6 C 86 % 1010,8 hPa 0,0 l/m N 0,00 h 0 W/m 0,0 km/h (0 Bft)
25.07.2018 04:00 15,9 C 88 % 1011,0 hPa 0,0 l/m N 0,00 h 0 W/m 0,0 km/h (0 Bft)
25.07.2018 05:00 15,2 C 89 % 1011,2 hPa 0,0 l/m N 0,00 h 7 W/m 0,0 km/h (0 Bft)
25.07.2018 06:00 15,2 C 90 % 1011,6 hPa 0,0 l/m N 0,00 h 36 W/m 0,0 km/h (0 Bft)
25.07.2018 07:00 16,8 C 87 % 1011,9 hPa 0,0 l/m N 0,83 h 172 W/m 0,0 km/h (0 Bft)
25.07.2018 08:00 19,8 C 79 % 1012,2 hPa 0,0 l/m N 1,00 h 346 W/m 0,0 km/h (0 Bft)
25.07.2018 09:00 23,1 C 66 % 1012,4 hPa 0,0 l/m N 0,75 h 375 W/m 0,0 km/h (0 Bft)
25.07.2018 10:00 25,7 C 54 % 1012,5 hPa 0,0 l/m O 0,83 h 597 W/m 5,0 km/h (1 Bft)
25.07.2018 11:00 27,4 C 48 % 1012,3 hPa 0,0 l/m O 1,00 h 759 W/m 8,3 km/h (2 Bft)
25.07.2018 12:00 28,8 C 42 % 1012,0 hPa 0,0 l/m O 1,00 h 840 W/m 10,7 km/h (2 Bft)
25.07.2018 13:00 30,3 C 39 % 1011,5 hPa 0,0 l/m O 1,00 h 895 W/m 15,2 km/h (3 Bft)
25.07.2018 14:00 30,1 C 41 % 1011,3 hPa 0,0 l/m NO 0,67 h 706 W/m 15,7 km/h (3 Bft)
25.07.2018 15:00 30,4 C 40 % 1011,1 hPa 0,0 l/m O 0,92 h 754 W/m 14,5 km/h (3 Bft)
25.07.2018 16:00 30,7 C 36 % 1010,8 hPa 0,0 l/m O 1,00 h 674 W/m 12,6 km/h (3 Bft)
25.07.2018 17:00 29,1 C 42 % 1010,8 hPa 0,0 l/m N-NO 0,83 h 462 W/m 20,4 km/h (4 Bft)
25.07.2018 18:00 27,8 C 47 % 1010,4 hPa 0,0 l/m N-NO 0,67 h 278 W/m 11,9 km/h (2 Bft)
25.07.2018 19:00 25,3 C 57 % 1010,4 hPa 0,0 l/m N 0,08 h 69 W/m 1,5 km/h (1 Bft)
25.07.2018 20:00 23,7 C 63 % 1010,6 hPa 0,0 l/m N 0,08 h 24 W/m 0,3 km/h (0 Bft)
25.07.2018 21:00 21,5 C 71 % 1011,0 hPa 0,0 l/m N 0,00 h 6 W/m 0,0 km/h (0 Bft)
25.07.2018 22:00 20,0 C 75 % 1011,4 hPa 0,0 l/m NO 0,00 h 0 W/m 0,9 km/h (0 Bft)
25.07.2018 23:00 19,1 C 80 % 1011,7 hPa 0,0 l/m N 0,00 h 0 W/m 0,1 km/h (0 Bft)
26.07.2018 00:00 18,6 C 82 % 1011,7 hPa 0,0 l/m N 0,00 h 0 W/m 0,0 km/h (0 Bft)
26.07.2018 01:00 17,9 C 84 % 1011,4 hPa 0,0 l/m NO 0,00 h 0 W/m 1,7 km/h (1 Bft)
26.07.2018 02:00 17,4 C 85 % 1011,4 hPa 0,0 l/m N 0,00 h 0 W/m 1,3 km/h (1 Bft)
26.07.2018 03:00 16,4 C 89 % 1011,4 hPa 0,0 l/m N 0,00 h 0 W/m 0,0 km/h (0 Bft)
26.07.2018 04:00 15,9 C 90 % 1011,2 hPa 0,0 l/m N 0,00 h 0 W/m 0,0 km/h (0 Bft)
26.07.2018 05:00 15,4 C 92 % 1011,4 hPa 0,0 l/m N 0,00 h 6 W/m 0,0 km/h (0 Bft)
26.07.2018 06:00 15,3 C 93 % 1011,5 hPa 0,0 l/m N 0,00 h 35 W/m 0,0 km/h (0 Bft)
26.07.2018 07:00 18,1 C 87 % 1011,8 hPa 0,0 l/m N 0,92 h 169 W/m 0,8 km/h (0 Bft)
26.07.2018 08:00 20,9 C 77 % 1011,9 hPa 0,0 l/m N 1,00 h 352 W/m 2,1 km/h (1 Bft)
26.07.2018 09:00 23,4 C 68 % 1012,0 hPa 0,0 l/m NO 0,75 h 379 W/m 8,2 km/h (2 Bft)
26.07.2018 10:00 25,4 C 61 % 1012,0 hPa 0,0 l/m O-NO 0,83 h 601 W/m 10,1 km/h (2 Bft)
26.07.2018 11:00 27,6 C 49 % 1011,7 hPa 0,0 l/m O-SO 1,00 h 781 W/m 17,0 km/h (3 Bft)
26.07.2018 12:00 28,9 C 42 % 1011,5 hPa 0,0 l/m NO 1,00 h 903 W/m 19,3 km/h (3 Bft)
26.07.2018 13:00 28,9 C 43 % 1011,2 hPa 0,0 l/m O-NO 0,75 h 739 W/m 18,1 km/h (3 Bft)
26.07.2018 14:00 29,5 C 40 % 1010,9 hPa 0,0 l/m O 0,83 h 743 W/m 16,4 km/h (3 Bft)
26.07.2018 15:00 30,1 C 37 % 1010,4 hPa 0,0 l/m NO 0,92 h 742 W/m 17,7 km/h (3 Bft)
26.07.2018 16:00 30,3 C 36 % 1010,2 hPa 0,0 l/m O-NO 1,00 h 665 W/m 17,2 km/h (3 Bft)
26.07.2018 17:00 30,2 C 34 % 1010,0 hPa 0,0 l/m O-NO 1,00 h 509 W/m 16,5 km/h (3 Bft)
26.07.2018 18:00 29,4 C 37 % 1010,0 hPa 0,0 l/m O 1,00 h 342 W/m 16,6 km/h (3 Bft)
26.07.2018 19:00 28,1 C 42 % 1010,2 hPa 0,0 l/m O-SO 0,83 h 161 W/m 15,8 km/h (3 Bft)
26.07.2018 20:00 26,1 C 49 % 1010,4 hPa 0,0 l/m O 0,08 h 31 W/m 10,2 km/h (2 Bft)
26.07.2018 21:00 23,8 C 58 % 1010,7 hPa 0,0 l/m N 0,00 h 6 W/m 2,0 km/h (1 Bft)
26.07.2018 22:00 20,8 C 69 % 1011,0 hPa 0,0 l/m N 0,00 h 0 W/m 0,0 km/h (0 Bft)
26.07.2018 23:00 19,4 C 74 % 1011,0 hPa 0,0 l/m N 0,00 h 0 W/m 0,0 km/h (0 Bft)
27.07.2018 00:00 18,6 C 76 % 1011,0 hPa 0,0 l/m N 0,00 h 0 W/m 0,1 km/h (0 Bft)
27.07.2018 01:00 18,0 C 79 % 1010,8 hPa 0,0 l/m N 0,00 h 0 W/m 0,0 km/h (0 Bft)
27.07.2018 02:00 17,8 C 79 % 1010,6 hPa 0,0 l/m O-NO 0,00 h 0 W/m 4,9 km/h (1 Bft)
27.07.2018 03:00 17,5 C 76 % 1010,5 hPa 0,0 l/m O-NO 0,00 h 0 W/m 4,0 km/h (1 Bft)
27.07.2018 04:00 17,3 C 76 % 1010,1 hPa 0,0 l/m N 0,00 h 0 W/m 4,3 km/h (1 Bft)
27.07.2018 05:00 16,4 C 80 % 1009,7 hPa 0,0 l/m N 0,00 h 6 W/m 0,4 km/h (0 Bft)
27.07.2018 06:00 15,4 C 86 % 1009,9 hPa 0,0 l/m N 0,00 h 31 W/m 0,0 km/h (0 Bft)
27.07.2018 07:00 17,7 C 80 % 1010,1 hPa 0,0 l/m N 0,75 h 164 W/m 0,5 km/h (0 Bft)
27.07.2018 08:00 20,9 C 69 % 1010,3 hPa 0,0 l/m O-NO 1,00 h 333 W/m 4,3 km/h (1 Bft)
27.07.2018 09:00 23,6 C 58 % 1010,5 hPa 0,0 l/m O-NO 0,83 h 400 W/m 7,3 km/h (2 Bft)
27.07.2018 10:00 25,1 C 54 % 1010,4 hPa 0,0 l/m O-NO 0,92 h 576 W/m 12,0 km/h (2 Bft)
27.07.2018 11:00 26,8 C 50 % 1010,0 hPa 0,0 l/m O-NO 1,00 h 756 W/m 18,6 km/h (3 Bft)
27.07.2018 12:00 28,1 C 45 % 1009,8 hPa 0,0 l/m O-NO 1,00 h 830 W/m 17,0 km/h (3 Bft)
27.07.2018 13:00 29,3 C 42 % 1009,2 hPa 0,0 l/m O-SO 1,00 h 855 W/m 16,0 km/h (3 Bft)
27.07.2018 14:00 30,0 C 38 % 1008,8 hPa 0,0 l/m O-NO 1,00 h 839 W/m 16,4 km/h (3 Bft)
27.07.2018 15:00 30,6 C 35 % 1008,3 hPa 0,0 l/m O-NO 1,00 h 766 W/m 16,9 km/h (3 Bft)
27.07.2018 16:00 30,6 C 37 % 1007,8 hPa 0,0 l/m O 1,00 h 643 W/m 13,3 km/h (3 Bft)
27.07.2018 17:00 30,6 C 37 % 1007,4 hPa 0,0 l/m O-SO 1,00 h 494 W/m 12,1 km/h (2 Bft)
27.07.2018 18:00 30,3 C 39 % 1007,1 hPa 0,0 l/m O-NO 1,00 h 330 W/m 11,0 km/h (2 Bft)
27.07.2018 19:00 29,0 C 42 % 1006,9 hPa 0,0 l/m O 0,83 h 151 W/m 11,7 km/h (2 Bft)
27.07.2018 20:00 27,0 C 50 % 1006,9 hPa 0,0 l/m O 0,08 h 27 W/m 3,1 km/h (1 Bft)
27.07.2018 21:00 23,2 C 64 % 1007,2 hPa 0,0 l/m N 0,00 h 5 W/m 0,0 km/h (0 Bft)
27.07.2018 22:00 21,2 C 70 % 1007,5 hPa 0,0 l/m N 0,00 h 0 W/m 0,0 km/h (0 Bft)
27.07.2018 23:00 20,1 C 75 % 1007,6 hPa 0,0 l/m N 0,00 h 0 W/m 0,0 km/h (0 Bft)
28.07.2018 00:00 19,5 C 76 % 1007,3 hPa 0,0 l/m N 0,00 h 0 W/m 0,0 km/h (0 Bft)
28.07.2018 01:00 19,1 C 78 % 1006,9 hPa 0,0 l/m N 0,00 h 0 W/m 0,3 km/h (0 Bft)
28.07.2018 02:00 18,2 C 82 % 1006,6 hPa 0,0 l/m N 0,00 h 0 W/m 0,0 km/h (0 Bft)
28.07.2018 03:00 17,3 C 84 % 1006,4 hPa 0,0 l/m N 0,00 h 0 W/m 0,0 km/h (0 Bft)
28.07.2018 04:00 16,4 C 89 % 1005,9 hPa 0,0 l/m N 0,00 h 0 W/m 0,0 km/h (0 Bft)
28.07.2018 05:00 15,9 C 90 % 1005,9 hPa 0,0 l/m N 0,00 h 6 W/m 0,0 km/h (0 Bft)
28.07.2018 06:00 15,5 C 91 % 1006,1 hPa 0,0 l/m N 0,08 h 35 W/m 0,0 km/h (0 Bft)
28.07.2018 07:00 17,0 C 88 % 1006,1 hPa 0,0 l/m O 0,83 h 149 W/m 0,4 km/h (0 Bft)
28.07.2018 08:00 20,3 C 77 % 1006,2 hPa 0,0 l/m O-SO 0,83 h 338 W/m 3,8 km/h (1 Bft)
28.07.2018 09:00 21,8 C 73 % 1006,5 hPa 0,0 l/m S-SW 0,00 h 166 W/m 9,5 km/h (2 Bft)
28.07.2018 10:00 21,5 C 75 % 1008,0 hPa 0,0 l/m W 0,00 h 71 W/m 14,5 km/h (3 Bft)
28.07.2018 11:00 21,7 C 72 % 1008,6 hPa 0,0 l/m W-SW 0,00 h 202 W/m 11,5 km/h (2 Bft)
28.07.2018 12:00 21,1 C 81 % 1008,7 hPa 0,0 l/m SW 0,42 h 441 W/m 18,1 km/h (3 Bft)
28.07.2018 13:00 24,4 C 64 % 1008,7 hPa 0,0 l/m SW 0,92 h 812 W/m 25,9 km/h (4 Bft)
28.07.2018 14:00 25,5 C 57 % 1009,1 hPa 0,0 l/m W-SW 0,67 h 566 W/m 33,1 km/h (5 Bft)
28.07.2018 15:00 24,3 C 61 % 1009,4 hPa 0,0 l/m SW 0,33 h 413 W/m 31,1 km/h (5 Bft)
28.07.2018 16:00 24,1 C 61 % 1009,3 hPa 0,0 l/m W 0,08 h 269 W/m 25,5 km/h (4 Bft)
28.07.2018 17:00 23,0 C 67 % 1009,8 hPa 0,0 l/m W-SW 0,00 h 201 W/m 25,1 km/h (4 Bft)
28.07.2018 18:00 22,5 C 70 % 1010,1 hPa 0,0 l/m W-SW 0,00 h 108 W/m 18,6 km/h (3 Bft)
28.07.2018 19:00 21,4 C 78 % 1010,8 hPa 0,0 l/m SW 0,00 h 58 W/m 14,9 km/h (3 Bft)
28.07.2018 20:00 20,3 C 83 % 1011,2 hPa 0,0 l/m W-SW 0,17 h 31 W/m 19,0 km/h (3 Bft)
28.07.2018 21:00 19,9 C 83 % 1011,5 hPa 0,0 l/m W-SW 0,00 h 0 W/m 11,1 km/h (2 Bft)
28.07.2018 22:00 19,6 C 85 % 1012,2 hPa 0,0 l/m W-SW 0,00 h 0 W/m 2,4 km/h (1 Bft)
28.07.2018 23:00 19,0 C 87 % 1012,4 hPa 0,0 l/m N 0,00 h 0 W/m 0,3 km/h (0 Bft)
29.07.2018 00:00 17,7 C 91 % 1012,8 hPa 0,0 l/m N 0,00 h 0 W/m 0,0 km/h (0 Bft)
29.07.2018 01:00 16,8 C 94 % 1012,9 hPa 0,0 l/m N 0,00 h 0 W/m 0,0 km/h (0 Bft)
29.07.2018 02:00 16,2 C 95 % 1013,2 hPa 0,0 l/m N 0,00 h 0 W/m 0,0 km/h (0 Bft)
29.07.2018 03:00 15,7 C 96 % 1013,2 hPa 0,0 l/m N 0,00 h 0 W/m 0,0 km/h (0 Bft)
29.07.2018 04:00 15,3 C 97 % 1013,1 hPa 0,0 l/m N 0,00 h 0 W/m 0,0 km/h (0 Bft)
29.07.2018 05:00 14,8 C 97 % 1013,3 hPa 0,0 l/m N 0,00 h 0 W/m 0,0 km/h (0 Bft)
29.07.2018 06:00 14,6 C 98 % 1013,4 hPa 0,0 l/m N 0,00 h 25 W/m 0,0 km/h (0 Bft)
29.07.2018 07:00 16,1 C 96 % 1013,2 hPa 0,0 l/m N 0,83 h 148 W/m 0,0 km/h (0 Bft)
29.07.2018 08:00 18,3 C 90 % 1013,1 hPa 0,0 l/m W-SW 0,67 h 277 W/m 0,8 km/h (0 Bft)
29.07.2018 09:00 20,8 C 81 % 1013,1 hPa 0,0 l/m N 0,75 h 370 W/m 0,0 km/h (0 Bft)
29.07.2018 10:00 23,2 C 70 % 1013,0 hPa 0,0 l/m NO 0,92 h 584 W/m 6,8 km/h (2 Bft)
29.07.2018 11:00 24,9 C 63 % 1012,6 hPa 0,0 l/m O 1,00 h 733 W/m 9,1 km/h (2 Bft)
29.07.2018 12:00 26,4 C 57 % 1012,2 hPa 0,0 l/m O 1,00 h 806 W/m 9,3 km/h (2 Bft)
29.07.2018 13:00 28,1 C 49 % 1011,8 hPa 0,0 l/m SO 1,00 h 871 W/m 8,4 km/h (2 Bft)
29.07.2018 14:00 29,4 C 43 % 1011,4 hPa 0,0 l/m O-NO 0,92 h 809 W/m 8,2 km/h (2 Bft)
29.07.2018 15:00 30,2 C 40 % 1011,1 hPa 0,0 l/m S-SW 1,00 h 777 W/m 11,9 km/h (2 Bft)
29.07.2018 16:00 30,4 C 37 % 1010,7 hPa 0,0 l/m S-SW 1,00 h 644 W/m 11,8 km/h (2 Bft)
29.07.2018 17:00 30,5 C 36 % 1010,4 hPa 0,0 l/m SW 1,00 h 503 W/m 12,7 km/h (3 Bft)
29.07.2018 18:00 30,3 C 35 % 1010,1 hPa 0,0 l/m SW 1,00 h 342 W/m 13,0 km/h (3 Bft)
29.07.2018 19:00 29,1 C 34 % 1010,2 hPa 0,0 l/m W-NW 0,83 h 156 W/m 6,0 km/h (2 Bft)
29.07.2018 20:00 25,4 C 47 % 1010,5 hPa 0,0 l/m N 0,08 h 25 W/m 0,7 km/h (0 Bft)
29.07.2018 21:00 22,3 C 60 % 1011,1 hPa 0,0 l/m N 0,00 h 5 W/m 0,0 km/h (0 Bft)
29.07.2018 22:00 20,4 C 70 % 1011,7 hPa 0,0 l/m N 0,00 h 0 W/m 0,0 km/h (0 Bft)
29.07.2018 23:00 19,0 C 74 % 1012,0 hPa 0,0 l/m N 0,00 h 0 W/m 0,0 km/h (0 Bft)
Min-Datum _ 29.07.18 29.07.18 28.07.18 - - - - 23.07.18
_ Min-Zeit 06:15 18:55 04:40 - - - - 00:00
Minimum _ 14,5 C 32 % 1005,7 hPa - - - - 0,0 km/h (0 Bft)
Max-Datum _ 25.07.18 23.07.18 23.07.18 23.07.18 - 23.07.18 23.07.18 28.07.18
_ Max-Zeit 14:10 02:15 11:00 00:10 - 08:55 14:15 14:20
Maximum _ 31,0 C 100 % 1015,6 hPa 0,2 l/m - 0,08 h 1097 W/m 40,2 km/h
SW (6 Bft)
Durchschnitt _ 22,0 C 69 % 1011,2 hPa #0,2 l/m O #71:10 h 389 W/m 6,6 km/h (2 Bft)